sensor_id;sensor_type;location;lat;lon;timestamp;P1;durP1;ratioP1;P2;durP2;ratioP2
74528;SDS011;63009;52.584;5.932;2024-02-15T00:00:39;22.60;;;8.57;;
74528;SDS011;63009;52.584;5.932;2024-02-15T00:03:05;21.45;;;9.73;;
74528;SDS011;63009;52.584;5.932;2024-02-15T00:05:38;21.13;;;8.77;;
74528;SDS011;63009;52.584;5.932;2024-02-15T00:08:04;19.58;;;8.52;;
74528;SDS011;63009;52.584;5.932;2024-02-15T00:10:29;23.25;;;9.73;;
74528;SDS011;63009;52.584;5.932;2024-02-15T00:12:55;23.15;;;9.13;;
74528;SDS011;63009;52.584;5.932;2024-02-15T00:15:20;19.48;;;9.05;;
74528;SDS011;63009;52.584;5.932;2024-02-15T00:17:46;23.10;;;9.35;;
74528;SDS011;63009;52.584;5.932;2024-02-15T00:22:39;23.20;;;8.35;;
74528;SDS011;63009;52.584;5.932;2024-02-15T00:27:34;18.67;;;7.90;;
74528;SDS011;63009;52.584;5.932;2024-02-15T00:30:00;18.63;;;7.85;;
74528;SDS011;63009;52.584;5.932;2024-02-15T00:32:26;15.57;;;6.10;;
74528;SDS011;63009;52.584;5.932;2024-02-15T00:34:51;21.55;;;7.60;;
74528;SDS011;63009;52.584;5.932;2024-02-15T00:37:17;14.43;;;6.13;;
74528;SDS011;63009;52.584;5.932;2024-02-15T00:39:42;15.60;;;5.85;;
74528;SDS011;63009;52.584;5.932;2024-02-15T00:42:08;16.10;;;6.03;;
74528;SDS011;63009;52.584;5.932;2024-02-15T00:44:34;17.90;;;6.97;;
74528;SDS011;63009;52.584;5.932;2024-02-15T00:46:59;13.50;;;5.15;;
74528;SDS011;63009;52.584;5.932;2024-02-15T00:49:25;15.43;;;5.88;;
74528;SDS011;63009;52.584;5.932;2024-02-15T00:51:53;13.80;;;5.68;;
74528;SDS011;63009;52.584;5.932;2024-02-15T00:54:18;13.52;;;5.15;;
74528;SDS011;63009;52.584;5.932;2024-02-15T00:56:44;14.70;;;4.20;;
74528;SDS011;63009;52.584;5.932;2024-02-15T00:59:09;12.57;;;4.60;;
74528;SDS011;63009;52.584;5.932;2024-02-15T01:01:34;11.52;;;4.80;;
74528;SDS011;63009;52.584;5.932;2024-02-15T01:04:03;14.05;;;5.25;;
74528;SDS011;63009;52.584;5.932;2024-02-15T01:06:29;12.80;;;5.68;;
74528;SDS011;63009;52.584;5.932;2024-02-15T01:08:55;9.95;;;5.13;;
74528;SDS011;63009;52.584;5.932;2024-02-15T01:11:20;17.45;;;5.95;;
74528;SDS011;63009;52.584;5.932;2024-02-15T01:13:46;15.82;;;4.68;;
74528;SDS011;63009;52.584;5.932;2024-02-15T01:16:11;15.93;;;5.47;;
74528;SDS011;63009;52.584;5.932;2024-02-15T01:18:37;14.32;;;5.22;;
74528;SDS011;63009;52.584;5.932;2024-02-15T01:21:03;16.73;;;5.10;;
74528;SDS011;63009;52.584;5.932;2024-02-15T01:23:28;18.92;;;5.93;;
74528;SDS011;63009;52.584;5.932;2024-02-15T01:25:54;14.50;;;5.78;;
74528;SDS011;63009;52.584;5.932;2024-02-15T01:28:19;14.07;;;5.18;;
74528;SDS011;63009;52.584;5.932;2024-02-15T01:30:45;16.65;;;5.30;;
74528;SDS011;63009;52.584;5.932;2024-02-15T01:33:11;18.17;;;6.38;;
74528;SDS011;63009;52.584;5.932;2024-02-15T01:35:37;14.93;;;5.80;;
74528;SDS011;63009;52.584;5.932;2024-02-15T01:38:03;15.75;;;4.82;;
74528;SDS011;63009;52.584;5.932;2024-02-15T01:40:30;14.15;;;4.50;;
74528;SDS011;63009;52.584;5.932;2024-02-15T01:42:55;15.48;;;5.72;;
74528;SDS011;63009;52.584;5.932;2024-02-15T01:45:22;16.13;;;5.43;;
74528;SDS011;63009;52.584;5.932;2024-02-15T01:47:48;22.15;;;4.80;;
74528;SDS011;63009;52.584;5.932;2024-02-15T01:50:14;15.80;;;4.53;;
74528;SDS011;63009;52.584;5.932;2024-02-15T01:52:41;16.27;;;5.65;;
74528;SDS011;63009;52.584;5.932;2024-02-15T01:55:08;13.32;;;5.35;;
74528;SDS011;63009;52.584;5.932;2024-02-15T01:57:37;15.45;;;5.63;;
74528;SDS011;63009;52.584;5.932;2024-02-15T02:00:04;22.42;;;7.50;;
74528;SDS011;63009;52.584;5.932;2024-02-15T02:02:31;16.55;;;6.70;;
74528;SDS011;63009;52.584;5.932;2024-02-15T02:04:59;20.00;;;8.30;;
74528;SDS011;63009;52.584;5.932;2024-02-15T02:07:25;21.63;;;8.50;;
74528;SDS011;63009;52.584;5.932;2024-02-15T02:09:51;22.30;;;9.13;;
74528;SDS011;63009;52.584;5.932;2024-02-15T02:12:16;20.50;;;7.65;;
74528;SDS011;63009;52.584;5.932;2024-02-15T02:14:43;18.77;;;8.02;;
74528;SDS011;63009;52.584;5.932;2024-02-15T02:17:15;19.17;;;8.20;;
74528;SDS011;63009;52.584;5.932;2024-02-15T02:19:41;19.65;;;9.07;;
74528;SDS011;63009;52.584;5.932;2024-02-15T02:22:08;18.17;;;6.93;;
74528;SDS011;63009;52.584;5.932;2024-02-15T02:24:36;18.80;;;7.68;;
74528;SDS011;63009;52.584;5.932;2024-02-15T02:27:10;19.42;;;8.02;;
74528;SDS011;63009;52.584;5.932;2024-02-15T02:29:42;16.60;;;7.70;;
74528;SDS011;63009;52.584;5.932;2024-02-15T02:32:10;16.60;;;7.53;;
74528;SDS011;63009;52.584;5.932;2024-02-15T02:34:36;21.08;;;8.68;;
74528;SDS011;63009;52.584;5.932;2024-02-15T02:37:01;18.10;;;7.97;;
74528;SDS011;63009;52.584;5.932;2024-02-15T02:39:30;18.13;;;8.70;;
74528;SDS011;63009;52.584;5.932;2024-02-15T02:41:56;17.80;;;7.93;;
74528;SDS011;63009;52.584;5.932;2024-02-15T02:44:22;19.73;;;9.00;;
74528;SDS011;63009;52.584;5.932;2024-02-15T02:46:47;22.27;;;9.50;;
74528;SDS011;63009;52.584;5.932;2024-02-15T02:49:13;19.73;;;8.73;;
74528;SDS011;63009;52.584;5.932;2024-02-15T02:51:38;18.42;;;8.48;;
74528;SDS011;63009;52.584;5.932;2024-02-15T02:54:04;26.60;;;9.27;;
74528;SDS011;63009;52.584;5.932;2024-02-15T02:56:31;21.92;;;9.23;;
74528;SDS011;63009;52.584;5.932;2024-02-15T02:58:58;21.15;;;9.43;;
74528;SDS011;63009;52.584;5.932;2024-02-15T03:01:23;22.63;;;9.27;;
74528;SDS011;63009;52.584;5.932;2024-02-15T03:03:53;20.67;;;9.35;;
74528;SDS011;63009;52.584;5.932;2024-02-15T03:06:21;25.92;;;10.25;;
74528;SDS011;63009;52.584;5.932;2024-02-15T03:08:49;22.23;;;8.93;;
74528;SDS011;63009;52.584;5.932;2024-02-15T03:11:19;20.98;;;10.93;;
74528;SDS011;63009;52.584;5.932;2024-02-15T03:13:44;22.98;;;11.13;;
74528;SDS011;63009;52.584;5.932;2024-02-15T03:16:10;24.35;;;10.35;;
74528;SDS011;63009;52.584;5.932;2024-02-15T03:18:35;23.98;;;10.88;;
74528;SDS011;63009;52.584;5.932;2024-02-15T03:21:01;25.30;;;11.95;;
74528;SDS011;63009;52.584;5.932;2024-02-15T03:23:26;26.67;;;11.05;;
74528;SDS011;63009;52.584;5.932;2024-02-15T03:25:53;24.58;;;11.93;;
74528;SDS011;63009;52.584;5.932;2024-02-15T03:28:19;25.98;;;12.90;;
74528;SDS011;63009;52.584;5.932;2024-02-15T03:30:46;24.83;;;12.13;;
74528;SDS011;63009;52.584;5.932;2024-02-15T03:33:12;26.85;;;12.70;;
74528;SDS011;63009;52.584;5.932;2024-02-15T03:35:38;23.85;;;13.35;;
74528;SDS011;63009;52.584;5.932;2024-02-15T03:38:03;26.67;;;13.00;;
74528;SDS011;63009;52.584;5.932;2024-02-15T03:40:29;25.67;;;12.63;;
74528;SDS011;63009;52.584;5.932;2024-02-15T03:42:55;24.80;;;12.38;;
74528;SDS011;63009;52.584;5.932;2024-02-15T03:45:21;23.83;;;13.00;;
74528;SDS011;63009;52.584;5.932;2024-02-15T03:47:53;25.20;;;12.55;;
74528;SDS011;63009;52.584;5.932;2024-02-15T03:50:20;31.42;;;13.95;;
74528;SDS011;63009;52.584;5.932;2024-02-15T03:52:48;25.85;;;13.45;;
74528;SDS011;63009;52.584;5.932;2024-02-15T03:55:15;27.35;;;13.65;;
74528;SDS011;63009;52.584;5.932;2024-02-15T03:57:40;25.55;;;12.73;;
74528;SDS011;63009;52.584;5.932;2024-02-15T04:00:08;24.35;;;13.23;;
74528;SDS011;63009;52.584;5.932;2024-02-15T04:02:36;24.92;;;11.93;;
74528;SDS011;63009;52.584;5.932;2024-02-15T04:05:02;26.85;;;13.23;;
74528;SDS011;63009;52.584;5.932;2024-02-15T04:07:30;25.88;;;12.52;;
74528;SDS011;63009;52.584;5.932;2024-02-15T04:09:57;25.45;;;13.50;;
74528;SDS011;63009;52.584;5.932;2024-02-15T04:12:24;23.52;;;13.10;;
74528;SDS011;63009;52.584;5.932;2024-02-15T04:14:49;30.88;;;13.48;;
74528;SDS011;63009;52.584;5.932;2024-02-15T04:17:16;25.90;;;12.75;;
74528;SDS011;63009;52.584;5.932;2024-02-15T04:19:45;27.10;;;14.82;;
74528;SDS011;63009;52.584;5.932;2024-02-15T04:22:16;26.20;;;13.02;;
74528;SDS011;63009;52.584;5.932;2024-02-15T04:24:44;24.08;;;12.13;;
74528;SDS011;63009;52.584;5.932;2024-02-15T04:27:10;28.52;;;12.68;;
74528;SDS011;63009;52.584;5.932;2024-02-15T04:29:37;26.05;;;13.05;;
74528;SDS011;63009;52.584;5.932;2024-02-15T04:32:06;27.55;;;12.18;;
74528;SDS011;63009;52.584;5.932;2024-02-15T04:34:35;22.88;;;12.75;;
74528;SDS011;63009;52.584;5.932;2024-02-15T04:37:01;23.33;;;11.85;;
74528;SDS011;63009;52.584;5.932;2024-02-15T04:39:31;24.38;;;12.50;;
74528;SDS011;63009;52.584;5.932;2024-02-15T04:41:57;24.08;;;11.95;;
74528;SDS011;63009;52.584;5.932;2024-02-15T04:44:23;25.67;;;12.82;;
74528;SDS011;63009;52.584;5.932;2024-02-15T04:46:52;24.73;;;12.80;;
74528;SDS011;63009;52.584;5.932;2024-02-15T04:49:18;24.40;;;11.75;;
74528;SDS011;63009;52.584;5.932;2024-02-15T04:51:44;22.63;;;11.27;;
74528;SDS011;63009;52.584;5.932;2024-02-15T04:54:10;26.05;;;10.85;;
74528;SDS011;63009;52.584;5.932;2024-02-15T04:56:38;26.67;;;11.35;;
74528;SDS011;63009;52.584;5.932;2024-02-15T04:59:04;23.33;;;11.48;;
74528;SDS011;63009;52.584;5.932;2024-02-15T05:01:34;20.02;;;10.13;;
74528;SDS011;63009;52.584;5.932;2024-02-15T05:04:00;24.30;;;11.60;;
74528;SDS011;63009;52.584;5.932;2024-02-15T05:06:25;21.42;;;10.05;;
74528;SDS011;63009;52.584;5.932;2024-02-15T05:08:55;23.52;;;11.10;;
74528;SDS011;63009;52.584;5.932;2024-02-15T05:11:22;21.85;;;10.50;;
74528;SDS011;63009;52.584;5.932;2024-02-15T05:13:48;25.95;;;10.00;;
74528;SDS011;63009;52.584;5.932;2024-02-15T05:18:41;21.63;;;9.07;;
74528;SDS011;63009;52.584;5.932;2024-02-15T05:21:07;18.33;;;9.73;;
74528;SDS011;63009;52.584;5.932;2024-02-15T05:23:34;21.17;;;9.32;;
74528;SDS011;63009;52.584;5.932;2024-02-15T05:26:00;20.58;;;9.40;;
74528;SDS011;63009;52.584;5.932;2024-02-15T05:28:26;19.17;;;9.95;;
74528;SDS011;63009;52.584;5.932;2024-02-15T05:33:46;17.15;;;8.88;;
74528;SDS011;63009;52.584;5.932;2024-02-15T05:36:19;19.45;;;9.43;;
74528;SDS011;63009;52.584;5.932;2024-02-15T05:38:51;19.35;;;9.38;;
74528;SDS011;63009;52.584;5.932;2024-02-15T05:41:18;23.75;;;9.60;;
74528;SDS011;63009;52.584;5.932;2024-02-15T05:43:44;21.08;;;9.55;;
74528;SDS011;63009;52.584;5.932;2024-02-15T05:46:10;20.35;;;9.98;;
74528;SDS011;63009;52.584;5.932;2024-02-15T05:48:36;19.73;;;8.32;;
74528;SDS011;63009;52.584;5.932;2024-02-15T05:51:03;17.65;;;9.10;;
74528;SDS011;63009;52.584;5.932;2024-02-15T05:53:29;19.55;;;9.95;;
74528;SDS011;63009;52.584;5.932;2024-02-15T05:55:55;17.90;;;8.82;;
74528;SDS011;63009;52.584;5.932;2024-02-15T05:58:22;18.25;;;8.90;;
74528;SDS011;63009;52.584;5.932;2024-02-15T06:00:48;20.92;;;8.95;;
74528;SDS011;63009;52.584;5.932;2024-02-15T06:03:14;20.40;;;9.02;;
74528;SDS011;63009;52.584;5.932;2024-02-15T06:05:43;17.88;;;8.88;;
74528;SDS011;63009;52.584;5.932;2024-02-15T06:08:09;20.67;;;8.68;;
74528;SDS011;63009;52.584;5.932;2024-02-15T06:10:37;18.00;;;9.15;;
74528;SDS011;63009;52.584;5.932;2024-02-15T06:13:03;20.55;;;9.23;;
74528;SDS011;63009;52.584;5.932;2024-02-15T06:15:29;21.48;;;9.02;;
74528;SDS011;63009;52.584;5.932;2024-02-15T06:17:54;21.60;;;9.98;;
74528;SDS011;63009;52.584;5.932;2024-02-15T06:20:20;18.85;;;9.32;;
74528;SDS011;63009;52.584;5.932;2024-02-15T06:22:46;18.40;;;10.00;;
74528;SDS011;63009;52.584;5.932;2024-02-15T06:25:12;21.67;;;9.15;;
74528;SDS011;63009;52.584;5.932;2024-02-15T06:27:40;21.90;;;10.02;;
74528;SDS011;63009;52.584;5.932;2024-02-15T06:30:10;21.02;;;10.10;;
74528;SDS011;63009;52.584;5.932;2024-02-15T06:32:55;23.50;;;9.25;;
74528;SDS011;63009;52.584;5.932;2024-02-15T06:35:39;19.90;;;9.10;;
74528;SDS011;63009;52.584;5.932;2024-02-15T06:38:23;18.23;;;8.93;;
74528;SDS011;63009;52.584;5.932;2024-02-15T06:41:07;16.33;;;8.68;;
74528;SDS011;63009;52.584;5.932;2024-02-15T06:43:35;25.15;;;9.70;;
74528;SDS011;63009;52.584;5.932;2024-02-15T06:46:02;19.58;;;8.90;;
74528;SDS011;63009;52.584;5.932;2024-02-15T06:48:28;18.10;;;9.18;;
74528;SDS011;63009;52.584;5.932;2024-02-15T06:56:42;17.67;;;8.77;;
74528;SDS011;63009;52.584;5.932;2024-02-15T06:59:10;19.02;;;8.85;;
74528;SDS011;63009;52.584;5.932;2024-02-15T07:01:39;20.10;;;8.43;;
74528;SDS011;63009;52.584;5.932;2024-02-15T07:04:07;17.67;;;8.73;;
74528;SDS011;63009;52.584;5.932;2024-02-15T07:06:35;18.95;;;9.48;;
74528;SDS011;63009;52.584;5.932;2024-02-15T07:09:04;18.35;;;8.32;;
74528;SDS011;63009;52.584;5.932;2024-02-15T07:11:32;21.33;;;8.38;;
74528;SDS011;63009;52.584;5.932;2024-02-15T07:16:24;18.10;;;7.83;;
74528;SDS011;63009;52.584;5.932;2024-02-15T07:18:49;17.50;;;8.00;;
74528;SDS011;63009;52.584;5.932;2024-02-15T07:21:15;19.13;;;9.00;;
74528;SDS011;63009;52.584;5.932;2024-02-15T07:23:41;20.83;;;9.65;;
74528;SDS011;63009;52.584;5.932;2024-02-15T07:26:07;18.33;;;9.15;;
74528;SDS011;63009;52.584;5.932;2024-02-15T07:28:33;18.70;;;9.00;;
74528;SDS011;63009;52.584;5.932;2024-02-15T07:30:58;16.13;;;8.40;;
74528;SDS011;63009;52.584;5.932;2024-02-15T07:33:25;16.85;;;9.15;;
74528;SDS011;63009;52.584;5.932;2024-02-15T07:35:50;21.52;;;9.80;;
74528;SDS011;63009;52.584;5.932;2024-02-15T07:38:16;16.42;;;9.60;;
74528;SDS011;63009;52.584;5.932;2024-02-15T07:40:42;18.08;;;9.35;;
74528;SDS011;63009;52.584;5.932;2024-02-15T07:43:08;18.80;;;9.80;;
74528;SDS011;63009;52.584;5.932;2024-02-15T07:45:34;17.77;;;9.20;;
74528;SDS011;63009;52.584;5.932;2024-02-15T07:48:02;18.17;;;9.55;;
74528;SDS011;63009;52.584;5.932;2024-02-15T07:50:29;17.83;;;9.63;;
74528;SDS011;63009;52.584;5.932;2024-02-15T07:52:55;18.65;;;8.80;;
74528;SDS011;63009;52.584;5.932;2024-02-15T07:55:21;19.20;;;9.82;;
74528;SDS011;63009;52.584;5.932;2024-02-15T07:57:46;17.38;;;9.05;;
74528;SDS011;63009;52.584;5.932;2024-02-15T08:00:13;17.73;;;8.25;;
74528;SDS011;63009;52.584;5.932;2024-02-15T08:02:41;19.85;;;8.73;;
74528;SDS011;63009;52.584;5.932;2024-02-15T08:05:09;16.45;;;8.77;;
74528;SDS011;63009;52.584;5.932;2024-02-15T08:07:42;19.17;;;9.90;;
74528;SDS011;63009;52.584;5.932;2024-02-15T08:10:12;18.25;;;9.55;;
74528;SDS011;63009;52.584;5.932;2024-02-15T08:12:46;17.83;;;8.60;;
74528;SDS011;63009;52.584;5.932;2024-02-15T08:15:17;17.38;;;8.85;;
74528;SDS011;63009;52.584;5.932;2024-02-15T08:17:43;18.55;;;8.88;;
74528;SDS011;63009;52.584;5.932;2024-02-15T08:20:12;16.05;;;8.45;;
74528;SDS011;63009;52.584;5.932;2024-02-15T08:22:39;16.10;;;8.13;;
74528;SDS011;63009;52.584;5.932;2024-02-15T08:25:06;15.02;;;8.43;;
74528;SDS011;63009;52.584;5.932;2024-02-15T08:27:35;15.55;;;8.52;;
74528;SDS011;63009;52.584;5.932;2024-02-15T08:30:14;22.95;;;9.13;;
74528;SDS011;63009;52.584;5.932;2024-02-15T08:32:40;17.58;;;8.20;;
74528;SDS011;63009;52.584;5.932;2024-02-15T08:35:13;13.35;;;7.32;;
74528;SDS011;63009;52.584;5.932;2024-02-15T08:37:39;16.73;;;8.57;;
74528;SDS011;63009;52.584;5.932;2024-02-15T08:40:07;13.75;;;7.40;;
74528;SDS011;63009;52.584;5.932;2024-02-15T08:42:40;15.50;;;6.28;;
74528;SDS011;63009;52.584;5.932;2024-02-15T08:45:06;14.35;;;6.80;;
74528;SDS011;63009;52.584;5.932;2024-02-15T08:47:36;14.05;;;6.85;;
74528;SDS011;63009;52.584;5.932;2024-02-15T08:50:05;13.60;;;6.63;;
74528;SDS011;63009;52.584;5.932;2024-02-15T08:52:31;12.13;;;5.97;;
74528;SDS011;63009;52.584;5.932;2024-02-15T08:54:57;13.75;;;6.38;;
74528;SDS011;63009;52.584;5.932;2024-02-15T08:57:24;12.27;;;5.78;;
74528;SDS011;63009;52.584;5.932;2024-02-15T08:59:49;12.70;;;6.07;;
74528;SDS011;63009;52.584;5.932;2024-02-15T09:02:16;13.63;;;6.85;;
74528;SDS011;63009;52.584;5.932;2024-02-15T09:04:42;10.98;;;5.68;;
74528;SDS011;63009;52.584;5.932;2024-02-15T09:07:08;12.40;;;5.70;;
74528;SDS011;63009;52.584;5.932;2024-02-15T09:09:34;11.57;;;5.15;;
74528;SDS011;63009;52.584;5.932;2024-02-15T09:12:01;12.15;;;5.45;;
74528;SDS011;63009;52.584;5.932;2024-02-15T09:14:31;10.98;;;4.97;;
74528;SDS011;63009;52.584;5.932;2024-02-15T09:17:00;9.60;;;4.60;;
74528;SDS011;63009;52.584;5.932;2024-02-15T09:19:25;9.55;;;3.88;;
74528;SDS011;63009;52.584;5.932;2024-02-15T09:21:51;10.27;;;4.80;;
74528;SDS011;63009;52.584;5.932;2024-02-15T09:24:16;10.48;;;5.05;;
74528;SDS011;63009;52.584;5.932;2024-02-15T09:26:42;9.95;;;4.28;;
74528;SDS011;63009;52.584;5.932;2024-02-15T09:29:09;9.30;;;4.20;;
74528;SDS011;63009;52.584;5.932;2024-02-15T09:31:34;8.70;;;3.97;;
74528;SDS011;63009;52.584;5.932;2024-02-15T09:34:01;9.05;;;4.25;;
74528;SDS011;63009;52.584;5.932;2024-02-15T09:36:33;10.23;;;4.68;;
74528;SDS011;63009;52.584;5.932;2024-02-15T09:38:59;10.38;;;5.05;;
74528;SDS011;63009;52.584;5.932;2024-02-15T09:41:24;10.77;;;4.50;;
74528;SDS011;63009;52.584;5.932;2024-02-15T09:43:50;9.48;;;3.83;;
74528;SDS011;63009;52.584;5.932;2024-02-15T09:46:17;9.32;;;4.20;;
74528;SDS011;63009;52.584;5.932;2024-02-15T09:48:42;9.52;;;4.50;;
74528;SDS011;63009;52.584;5.932;2024-02-15T09:51:14;9.05;;;4.47;;
74528;SDS011;63009;52.584;5.932;2024-02-15T09:53:42;9.10;;;4.20;;
74528;SDS011;63009;52.584;5.932;2024-02-15T09:56:08;10.13;;;4.07;;
74528;SDS011;63009;52.584;5.932;2024-02-15T09:58:36;12.52;;;5.25;;
74528;SDS011;63009;52.584;5.932;2024-02-15T10:01:04;8.30;;;3.47;;
74528;SDS011;63009;52.584;5.932;2024-02-15T10:03:34;9.48;;;4.28;;
74528;SDS011;63009;52.584;5.932;2024-02-15T10:06:02;9.30;;;4.28;;
74528;SDS011;63009;52.584;5.932;2024-02-15T10:08:28;10.75;;;4.40;;
74528;SDS011;63009;52.584;5.932;2024-02-15T10:11:06;9.32;;;4.68;;
74528;SDS011;63009;52.584;5.932;2024-02-15T10:13:35;8.73;;;4.00;;
74528;SDS011;63009;52.584;5.932;2024-02-15T10:16:15;9.10;;;4.72;;
74528;SDS011;63009;52.584;5.932;2024-02-15T10:18:41;8.68;;;4.05;;
74528;SDS011;63009;52.584;5.932;2024-02-15T10:21:07;8.23;;;3.63;;
74528;SDS011;63009;52.584;5.932;2024-02-15T10:23:32;7.72;;;3.55;;
74528;SDS011;63009;52.584;5.932;2024-02-15T10:25:57;7.40;;;2.95;;
74528;SDS011;63009;52.584;5.932;2024-02-15T10:28:23;8.02;;;3.63;;
74528;SDS011;63009;52.584;5.932;2024-02-15T10:30:49;7.65;;;3.00;;
74528;SDS011;63009;52.584;5.932;2024-02-15T10:33:18;8.07;;;3.10;;
74528;SDS011;63009;52.584;5.932;2024-02-15T10:35:48;7.88;;;3.53;;
74528;SDS011;63009;52.584;5.932;2024-02-15T10:38:14;8.07;;;3.67;;
74528;SDS011;63009;52.584;5.932;2024-02-15T10:40:40;8.15;;;3.30;;
74528;SDS011;63009;52.584;5.932;2024-02-15T10:43:07;8.13;;;3.55;;
74528;SDS011;63009;52.584;5.932;2024-02-15T10:45:37;9.30;;;4.63;;
74528;SDS011;63009;52.584;5.932;2024-02-15T10:48:03;7.97;;;3.38;;
74528;SDS011;63009;52.584;5.932;2024-02-15T10:50:31;8.52;;;3.78;;
74528;SDS011;63009;52.584;5.932;2024-02-15T10:52:57;8.25;;;3.60;;
74528;SDS011;63009;52.584;5.932;2024-02-15T10:55:31;9.73;;;4.07;;
74528;SDS011;63009;52.584;5.932;2024-02-15T10:58:08;9.50;;;4.45;;
74528;SDS011;63009;52.584;5.932;2024-02-15T11:00:36;10.45;;;4.45;;
74528;SDS011;63009;52.584;5.932;2024-02-15T11:03:05;8.63;;;3.97;;
74528;SDS011;63009;52.584;5.932;2024-02-15T11:05:36;11.05;;;4.55;;
74528;SDS011;63009;52.584;5.932;2024-02-15T11:08:05;9.18;;;4.60;;
74528;SDS011;63009;52.584;5.932;2024-02-15T11:10:33;9.43;;;4.18;;
74528;SDS011;63009;52.584;5.932;2024-02-15T11:13:00;9.82;;;4.90;;
74528;SDS011;63009;52.584;5.932;2024-02-15T11:18:00;11.05;;;5.22;;
74528;SDS011;63009;52.584;5.932;2024-02-15T11:23:00;11.27;;;4.78;;
74528;SDS011;63009;52.584;5.932;2024-02-15T11:25:35;11.98;;;5.82;;
74528;SDS011;63009;52.584;5.932;2024-02-15T11:30:48;12.80;;;5.82;;
74528;SDS011;63009;52.584;5.932;2024-02-15T11:33:23;11.93;;;5.47;;
74528;SDS011;63009;52.584;5.932;2024-02-15T11:36:08;12.68;;;5.45;;
74528;SDS011;63009;52.584;5.932;2024-02-15T11:38:35;10.70;;;5.45;;
74528;SDS011;63009;52.584;5.932;2024-02-15T11:41:02;12.73;;;5.68;;
74528;SDS011;63009;52.584;5.932;2024-02-15T11:48:40;15.33;;;6.67;;
74528;SDS011;63009;52.584;5.932;2024-02-15T11:51:06;15.43;;;6.57;;
74528;SDS011;63009;52.584;5.932;2024-02-15T11:53:32;13.27;;;5.90;;
74528;SDS011;63009;52.584;5.932;2024-02-15T11:56:01;14.77;;;6.22;;
74528;SDS011;63009;52.584;5.932;2024-02-15T11:58:27;13.82;;;6.05;;
74528;SDS011;63009;52.584;5.932;2024-02-15T12:01:11;16.00;;;7.28;;
74528;SDS011;63009;52.584;5.932;2024-02-15T12:03:55;14.32;;;5.97;;
74528;SDS011;63009;52.584;5.932;2024-02-15T12:06:39;13.52;;;6.05;;
74528;SDS011;63009;52.584;5.932;2024-02-15T12:09:24;15.50;;;6.70;;
74528;SDS011;63009;52.584;5.932;2024-02-15T12:12:11;12.93;;;6.32;;
74528;SDS011;63009;52.584;5.932;2024-02-15T12:15:01;11.88;;;6.15;;
74528;SDS011;63009;52.584;5.932;2024-02-15T12:17:46;14.20;;;6.57;;
74528;SDS011;63009;52.584;5.932;2024-02-15T12:20:30;13.40;;;6.28;;
74528;SDS011;63009;52.584;5.932;2024-02-15T12:22:57;13.13;;;6.88;;
74528;SDS011;63009;52.584;5.932;2024-02-15T12:25:26;13.27;;;6.45;;
74528;SDS011;63009;52.584;5.932;2024-02-15T12:27:55;15.35;;;6.47;;
74528;SDS011;63009;52.584;5.932;2024-02-15T12:30:25;11.55;;;5.90;;
74528;SDS011;63009;52.584;5.932;2024-02-15T12:33:10;12.45;;;6.13;;
74528;SDS011;63009;52.584;5.932;2024-02-15T12:35:37;13.25;;;5.80;;
74528;SDS011;63009;52.584;5.932;2024-02-15T12:38:03;16.77;;;6.85;;
74528;SDS011;63009;52.584;5.932;2024-02-15T12:40:36;13.27;;;6.45;;
74528;SDS011;63009;52.584;5.932;2024-02-15T12:43:06;15.88;;;6.50;;
74528;SDS011;63009;52.584;5.932;2024-02-15T12:45:40;13.13;;;6.38;;
74528;SDS011;63009;52.584;5.932;2024-02-15T12:48:07;13.80;;;6.55;;
74528;SDS011;63009;52.584;5.932;2024-02-15T12:50:34;13.75;;;6.57;;
74528;SDS011;63009;52.584;5.932;2024-02-15T12:53:01;14.88;;;7.07;;
74528;SDS011;63009;52.584;5.932;2024-02-15T12:55:34;14.77;;;7.28;;
74528;SDS011;63009;52.584;5.932;2024-02-15T12:58:01;13.20;;;6.45;;
74528;SDS011;63009;52.584;5.932;2024-02-15T13:00:33;16.30;;;6.65;;
74528;SDS011;63009;52.584;5.932;2024-02-15T13:03:02;14.30;;;7.20;;
74528;SDS011;63009;52.584;5.932;2024-02-15T13:05:28;13.82;;;6.63;;
74528;SDS011;63009;52.584;5.932;2024-02-15T13:07:55;13.65;;;7.25;;
74528;SDS011;63009;52.584;5.932;2024-02-15T13:10:23;14.20;;;7.50;;
74528;SDS011;63009;52.584;5.932;2024-02-15T13:12:50;14.00;;;7.63;;
74528;SDS011;63009;52.584;5.932;2024-02-15T13:15:17;14.60;;;6.43;;
74528;SDS011;63009;52.584;5.932;2024-02-15T13:17:44;14.02;;;7.00;;
74528;SDS011;63009;52.584;5.932;2024-02-15T13:20:11;13.23;;;7.18;;
74528;SDS011;63009;52.584;5.932;2024-02-15T13:22:39;18.35;;;7.78;;
74528;SDS011;63009;52.584;5.932;2024-02-15T13:25:08;16.80;;;7.15;;
74528;SDS011;63009;52.584;5.932;2024-02-15T13:27:35;13.15;;;6.57;;
74528;SDS011;63009;52.584;5.932;2024-02-15T13:30:03;16.52;;;8.30;;
74528;SDS011;63009;52.584;5.932;2024-02-15T13:32:33;15.23;;;7.00;;
74528;SDS011;63009;52.584;5.932;2024-02-15T13:34:59;15.27;;;6.88;;
74528;SDS011;63009;52.584;5.932;2024-02-15T13:37:29;14.82;;;7.15;;
74528;SDS011;63009;52.584;5.932;2024-02-15T13:39:54;16.23;;;7.43;;
74528;SDS011;63009;52.584;5.932;2024-02-15T13:42:20;15.15;;;7.10;;
74528;SDS011;63009;52.584;5.932;2024-02-15T13:44:45;15.88;;;7.18;;
74528;SDS011;63009;52.584;5.932;2024-02-15T13:49:41;14.25;;;7.10;;
74528;SDS011;63009;52.584;5.932;2024-02-15T13:52:06;14.73;;;7.28;;
74528;SDS011;63009;52.584;5.932;2024-02-15T13:54:32;16.45;;;7.40;;
74528;SDS011;63009;52.584;5.932;2024-02-15T13:56:59;16.02;;;8.05;;
74528;SDS011;63009;52.584;5.932;2024-02-15T13:59:26;15.82;;;7.63;;
74528;SDS011;63009;52.584;5.932;2024-02-15T14:01:53;15.15;;;7.78;;
74528;SDS011;63009;52.584;5.932;2024-02-15T14:04:18;14.30;;;7.57;;
74528;SDS011;63009;52.584;5.932;2024-02-15T14:06:44;17.10;;;7.57;;
74528;SDS011;63009;52.584;5.932;2024-02-15T14:09:12;15.70;;;8.32;;
74528;SDS011;63009;52.584;5.932;2024-02-15T14:11:38;12.98;;;6.72;;
74528;SDS011;63009;52.584;5.932;2024-02-15T14:14:04;12.77;;;7.07;;
74528;SDS011;63009;52.584;5.932;2024-02-15T14:16:30;17.95;;;6.70;;
74528;SDS011;63009;52.584;5.932;2024-02-15T14:18:56;13.25;;;6.45;;
74528;SDS011;63009;52.584;5.932;2024-02-15T14:21:21;15.80;;;6.90;;
74528;SDS011;63009;52.584;5.932;2024-02-15T14:23:47;14.02;;;7.57;;
74528;SDS011;63009;52.584;5.932;2024-02-15T14:26:12;15.40;;;6.32;;
74528;SDS011;63009;52.584;5.932;2024-02-15T14:28:37;14.43;;;5.90;;
74528;SDS011;63009;52.584;5.932;2024-02-15T14:31:07;14.80;;;7.22;;
74528;SDS011;63009;52.584;5.932;2024-02-15T14:33:51;13.07;;;6.70;;
74528;SDS011;63009;52.584;5.932;2024-02-15T14:36:16;14.35;;;7.60;;
74528;SDS011;63009;52.584;5.932;2024-02-15T14:38:42;13.75;;;6.43;;
74528;SDS011;63009;52.584;5.932;2024-02-15T14:41:09;14.05;;;6.30;;
74528;SDS011;63009;52.584;5.932;2024-02-15T14:43:36;14.05;;;6.10;;
74528;SDS011;63009;52.584;5.932;2024-02-15T14:46:01;11.32;;;5.22;;
74528;SDS011;63009;52.584;5.932;2024-02-15T14:48:30;10.68;;;4.90;;
74528;SDS011;63009;52.584;5.932;2024-02-15T14:50:56;10.68;;;5.65;;
74528;SDS011;63009;52.584;5.932;2024-02-15T14:53:22;10.18;;;4.95;;
74528;SDS011;63009;52.584;5.932;2024-02-15T14:55:48;10.75;;;4.55;;
74528;SDS011;63009;52.584;5.932;2024-02-15T14:58:15;11.80;;;5.40;;
74528;SDS011;63009;52.584;5.932;2024-02-15T15:00:41;12.55;;;4.60;;
74528;SDS011;63009;52.584;5.932;2024-02-15T15:03:08;12.93;;;4.57;;
74528;SDS011;63009;52.584;5.932;2024-02-15T15:05:34;11.52;;;4.57;;
74528;SDS011;63009;52.584;5.932;2024-02-15T15:08:18;10.27;;;4.10;;
74528;SDS011;63009;52.584;5.932;2024-02-15T15:11:02;11.65;;;4.35;;